createdAt,value
2022-08-25T00:02:55.627Z,101350.44
2022-08-25T00:06:02.898Z,101350.44
2022-08-25T00:09:14.617Z,101350.44
2022-08-25T00:12:22.276Z,101319.44
2022-08-25T00:15:31.275Z,101319.44
2022-08-25T00:18:37.680Z,101319.44
2022-08-25T00:21:45.869Z,101319.44
2022-08-25T00:24:52.143Z,101311.72
2022-08-25T00:28:03.057Z,101311.72
2022-08-25T00:31:14.590Z,101311.72
2022-08-25T00:34:25.781Z,101311.72
2022-08-25T00:37:32.274Z,101295.34
2022-08-25T00:40:41.426Z,101297.94
2022-08-25T00:43:52.842Z,101297.94
2022-08-25T00:47:02.805Z,101300.56
2022-08-25T00:50:11.309Z,101300.56
2022-08-25T00:53:17.902Z,101300.56
2022-08-25T00:56:24.306Z,101300.56
2022-08-25T00:59:32.627Z,101300.56
2022-08-25T01:02:39.335Z,101300.56
2022-08-25T01:05:47.082Z,101300.56
2022-08-25T01:08:54.616Z,101300.56
2022-08-25T01:12:02.371Z,101300.56
2022-08-25T01:15:13.794Z,101298.88
2022-08-25T01:18:20.409Z,101310.94
2022-08-25T01:21:31.728Z,101306.59
2022-08-25T01:24:43.821Z,101304.91
2022-08-25T01:27:50.902Z,101309.19
2022-08-25T01:30:57.787Z,101304.03
2022-08-25T01:34:05.645Z,101308.34
2022-08-25T01:37:16.200Z,101300.56
2022-08-25T01:40:23.088Z,101307.44
2022-08-25T01:43:38.122Z,101304.88
2022-08-25T01:46:44.873Z,101299.66
2022-08-25T01:49:51.229Z,101301.44
2022-08-25T01:53:05.665Z,101292.78
2022-08-25T01:56:16.087Z,101297.97
2022-08-25T01:59:24.355Z,101297.13
2022-08-25T02:02:31.627Z,101290.22
2022-08-25T02:05:40.143Z,101289.34
2022-08-25T02:08:52.227Z,101283.28
2022-08-25T02:11:59.253Z,101277.28
2022-08-25T02:15:08.594Z,101279.84
2022-08-25T02:18:15.318Z,101265.19
2022-08-25T02:21:21.629Z,101264.34
2022-08-25T02:24:29.703Z,101257.41
2022-08-25T02:27:36.368Z,101251.38
2022-08-25T02:30:44.264Z,101243.63
2022-08-25T02:33:51.028Z,101249.66
2022-08-25T02:36:57.369Z,101250.53
2022-08-25T02:40:07.486Z,101253.09
2022-08-25T02:43:14.000Z,101253.13
2022-08-25T02:46:22.951Z,101244.47
2022-08-25T02:49:29.405Z,101240.19
2022-08-25T02:52:36.301Z,101230.66
2022-08-25T02:55:44.255Z,101225.47
2022-08-25T02:58:50.774Z,101228.91
2022-08-25T03:01:57.392Z,101228.06
2022-08-25T03:05:05.034Z,101224.59
2022-08-25T03:08:12.283Z,101228.88
2022-08-25T03:11:21.073Z,101227.16
2022-08-25T03:14:27.306Z,101225.44
2022-08-25T03:17:33.701Z,101221.13
2022-08-25T03:20:43.037Z,101216.78
2022-08-25T03:23:49.487Z,101220.22
2022-08-25T03:26:56.179Z,101208.16
2022-08-25T03:30:03.355Z,101197.81
2022-08-25T03:33:09.855Z,101197.81
2022-08-25T03:36:17.279Z,101198.66
2022-08-25T03:39:26.684Z,101194.31
2022-08-25T03:42:34.894Z,101193.44
2022-08-25T03:45:43.110Z,101202.00
2022-08-25T03:48:49.648Z,101182.19
2022-08-25T03:51:56.213Z,101177.84
2022-08-25T03:55:03.373Z,101185.56
2022-08-25T03:58:11.078Z,101184.69
2022-08-25T04:01:18.353Z,101195.88
2022-08-25T04:04:25.613Z,101185.56
2022-08-25T04:07:32.239Z,101188.13
2022-08-25T04:10:39.340Z,101185.53
2022-08-25T04:13:48.880Z,101180.34
2022-08-25T04:16:55.300Z,101182.91
2022-08-25T04:20:02.752Z,101187.19
2022-08-25T04:23:09.665Z,101175.13
2022-08-25T04:26:20.693Z,101176.81
2022-08-25T04:29:28.601Z,101179.34
2022-08-25T04:32:37.346Z,101173.31
2022-08-25T04:35:49.592Z,101181.84
2022-08-25T04:38:55.924Z,101181.78
2022-08-25T04:42:03.449Z,57006.34
2022-08-25T04:45:11.678Z,57006.34
2022-08-25T04:48:18.393Z,57006.34
2022-08-25T04:51:29.328Z,57006.34
2022-08-25T04:54:36.024Z,57006.34
2022-08-25T04:57:43.373Z,57006.34
2022-08-25T05:00:51.357Z,57006.34
2022-08-25T05:04:01.016Z,57006.34
2022-08-25T05:07:07.430Z,57006.34
2022-08-25T05:10:13.932Z,57006.34
2022-08-25T05:13:21.277Z,57006.34
2022-08-25T05:16:29.910Z,101195.47
2022-08-25T05:19:37.170Z,57006.34
2022-08-25T05:22:47.109Z,57006.34
2022-08-25T05:25:54.193Z,57006.34
2022-08-25T05:29:04.119Z,57006.34
2022-08-25T05:32:11.968Z,57006.34
2022-08-25T05:35:19.474Z,57006.34
2022-08-25T05:38:25.802Z,57006.34
2022-08-25T05:41:33.464Z,57006.34
2022-08-25T05:44:39.706Z,57006.34
2022-08-25T05:47:47.386Z,57006.34
2022-08-25T05:50:54.152Z,57006.34
2022-08-25T05:54:00.854Z,57006.34
2022-08-25T05:57:09.158Z,57006.34
2022-08-25T06:00:17.185Z,57006.34
2022-08-25T06:03:25.277Z,57006.34
2022-08-25T06:06:31.844Z,101195.47
2022-08-25T06:09:39.765Z,101195.47
2022-08-25T06:12:47.774Z,101170.28
2022-08-25T06:15:58.755Z,101170.28
2022-08-25T06:19:06.961Z,76356.00
2022-08-25T06:22:13.633Z,76356.00
2022-08-25T06:25:23.554Z,57006.34
2022-08-25T06:28:30.033Z,57006.34
2022-08-25T06:31:36.589Z,57006.34
2022-08-25T06:34:44.182Z,57006.34
2022-08-25T06:37:50.958Z,113603.97
2022-08-25T06:40:58.096Z,96029.84
2022-08-25T06:44:05.648Z,101170.28
2022-08-25T06:47:12.518Z,57006.34
2022-08-25T06:50:20.481Z,57006.34
2022-08-25T06:53:27.049Z,57006.34
2022-08-25T06:56:34.599Z,101170.28
2022-08-25T06:59:41.532Z,101170.28
2022-08-25T07:02:48.117Z,57006.34
2022-08-25T07:05:57.250Z,57006.34
2022-08-25T07:09:06.552Z,57006.34
2022-08-25T07:12:12.938Z,47511.41
2022-08-25T07:15:20.864Z,101150.22
2022-08-25T07:18:27.930Z,57006.34
2022-08-25T07:21:38.925Z,101150.22
2022-08-25T07:24:45.585Z,101150.22
2022-08-25T07:27:56.978Z,101108.22
2022-08-25T07:31:05.224Z,101095.69
2022-08-25T07:38:02.881Z,101098.81
2022-08-25T07:41:10.571Z,57006.34
2022-08-25T07:44:16.882Z,101098.81
2022-08-25T07:47:23.588Z,101098.81
2022-08-25T07:50:32.043Z,57006.34
2022-08-25T07:53:40.240Z,57006.34
2022-08-25T07:56:46.759Z,57006.34
2022-08-25T07:59:53.461Z,57006.34
2022-08-25T08:03:00.968Z,100980.78
2022-08-25T08:06:12.446Z,57006.34
2022-08-25T08:09:20.480Z,57006.34
2022-08-25T08:12:27.905Z,57006.34
2022-08-25T08:15:35.641Z,57006.34
2022-08-25T08:18:43.654Z,57006.34
2022-08-25T08:21:50.714Z,100980.78
2022-08-25T08:25:00.226Z,57006.34
2022-08-25T08:28:07.542Z,57006.34
2022-08-25T08:31:14.387Z,57006.34
2022-08-25T08:34:24.991Z,100714.84
2022-08-25T08:37:31.407Z,57006.34
2022-08-25T08:41:09.727Z,74274.34
2022-08-25T08:44:27.561Z,100714.84
2022-08-25T08:47:50.635Z,100714.84
2022-08-25T08:51:09.992Z,100714.84
2022-08-25T08:54:23.134Z,100608.25
2022-08-25T08:57:35.680Z,100595.78
2022-08-25T09:00:52.220Z,100595.78
2022-08-25T09:04:05.945Z,100595.78
2022-08-25T09:07:18.036Z,100595.78
2022-08-25T09:10:46.205Z,100595.78
2022-08-25T09:14:12.267Z,100597.53
2022-08-25T09:17:37.520Z,100647.00
2022-08-25T09:20:57.683Z,100723.56
2022-08-25T09:24:28.113Z,100785.22
2022-08-25T09:27:41.957Z,100846.66
2022-08-25T09:30:56.464Z,100867.19
2022-08-25T09:34:06.033Z,100878.91
2022-08-25T09:37:12.749Z,100832.94
2022-08-25T09:40:19.588Z,100836.94
2022-08-25T09:43:33.409Z,100815.03
2022-08-25T09:46:41.262Z,100803.06
2022-08-25T09:50:00.157Z,100775.28
2022-08-25T09:53:18.746Z,100785.88
2022-08-25T09:56:31.259Z,100756.94
2022-08-25T09:59:38.856Z,100755.09
2022-08-25T10:03:06.034Z,100804.97
2022-08-25T10:06:16.420Z,100859.28
2022-08-25T10:09:30.797Z,100891.88
2022-08-25T10:12:43.178Z,100949.38
2022-08-25T10:16:05.510Z,100977.91
2022-08-25T10:19:30.750Z,101000.09
2022-08-25T10:22:39.073Z,34938.94
2022-08-25T10:25:59.396Z,57006.34
2022-08-25T10:29:21.491Z,57006.34
2022-08-25T10:32:41.097Z,57006.34
2022-08-25T10:35:58.430Z,57006.34
2022-08-25T10:39:05.621Z,103094.38
2022-08-25T10:42:39.854Z,101000.09
2022-08-25T10:45:54.554Z,100978.94
2022-08-25T10:49:06.195Z,100912.34
2022-08-25T10:52:25.227Z,100912.34
2022-08-25T10:55:43.224Z,100912.34
2022-08-25T10:59:09.325Z,100935.75
2022-08-25T11:02:49.389Z,100925.19
2022-08-25T11:06:01.583Z,100899.59
2022-08-25T11:09:13.815Z,100927.75
2022-08-25T11:12:29.859Z,100917.22
2022-08-25T11:15:50.241Z,100931.88
2022-08-25T11:19:17.350Z,100887.91
2022-08-25T11:22:31.353Z,100902.41
2022-08-25T11:25:45.870Z,100893.47
2022-08-25T11:29:02.583Z,100868.88
2022-08-25T11:32:09.529Z,100836.59
2022-08-25T11:35:20.971Z,100821.19
2022-08-25T11:38:44.905Z,100847.50
2022-08-25T11:42:12.276Z,100874.50
2022-08-25T11:45:54.877Z,100868.81
2022-08-25T11:49:16.825Z,100839.53
2022-08-25T11:52:49.166Z,57006.34
2022-08-25T11:56:02.525Z,97719.03
2022-08-25T11:59:10.932Z,100839.53
2022-08-25T12:02:34.218Z,100839.53
2022-08-25T12:06:15.822Z,100823.47
2022-08-25T12:09:23.386Z,100799.63
2022-08-25T12:12:32.934Z,100782.56
2022-08-25T12:16:02.517Z,100783.94
2022-08-25T12:19:28.964Z,100762.97
2022-08-25T12:22:56.390Z,100762.84
2022-08-25T12:26:10.998Z,100769.31
2022-08-25T12:29:29.777Z,100747.16
2022-08-25T12:32:59.553Z,100771.78
2022-08-25T12:36:11.203Z,100721.44
2022-08-25T12:39:24.227Z,100755.69
2022-08-25T12:42:34.655Z,100788.13
2022-08-25T12:45:45.211Z,100791.31
2022-08-25T12:49:02.892Z,100861.44
2022-08-25T12:52:13.805Z,100846.34
2022-08-25T12:55:23.466Z,100848.31
2022-08-25T12:58:58.821Z,100837.59
2022-08-25T13:02:38.359Z,100845.31
2022-08-25T13:06:22.409Z,100847.69
2022-08-25T13:10:25.571Z,100857.63
2022-08-25T13:13:48.398Z,100893.94
2022-08-25T13:16:57.995Z,100902.34
2022-08-25T13:20:18.215Z,100908.69
2022-08-25T13:23:30.673Z,100909.38
2022-08-25T13:26:48.227Z,100887.06
2022-08-25T13:29:58.012Z,100885.97
2022-08-25T13:33:20.366Z,100913.75
2022-08-25T13:36:54.269Z,100916.31
2022-08-25T13:40:17.734Z,100934.81
2022-08-25T13:43:27.653Z,100959.00
2022-08-25T13:46:35.506Z,100974.47
2022-08-25T13:49:45.710Z,100998.84
2022-08-25T13:52:57.744Z,101001.09
2022-08-25T13:56:07.378Z,101019.03
2022-08-25T13:59:25.744Z,101011.00
2022-08-25T14:02:45.482Z,101046.78
2022-08-25T14:06:08.165Z,101039.59
2022-08-25T14:09:18.367Z,101042.94
2022-08-25T14:12:40.882Z,101076.78
2022-08-25T14:15:47.733Z,101102.56
2022-08-25T14:19:00.677Z,101153.25
2022-08-25T14:22:08.343Z,101176.44
2022-08-25T14:25:14.772Z,101184.69
2022-08-25T14:28:26.421Z,101178.03
2022-08-25T14:31:39.325Z,101163.56
2022-08-25T14:34:46.302Z,101176.38
2022-08-25T14:37:53.169Z,101171.16
2022-08-25T14:40:59.854Z,101188.78
2022-08-25T14:44:08.733Z,101178.22
2022-08-25T14:47:16.348Z,101169.44
2022-08-25T14:50:24.038Z,101156.31
2022-08-25T14:53:30.748Z,101164.97
2022-08-25T14:56:37.726Z,101148.13
2022-08-25T14:59:51.745Z,101091.94
2022-08-25T15:02:58.319Z,101074.72
2022-08-25T15:06:06.599Z,101092.81
2022-08-25T15:09:16.479Z,101114.31
2022-08-25T15:12:45.974Z,101132.47
2022-08-25T15:15:52.636Z,101160.72
2022-08-25T15:19:00.061Z,101163.50
2022-08-25T15:22:07.730Z,101175.25
2022-08-25T15:25:18.125Z,101181.97
2022-08-25T15:28:26.574Z,101176.28
2022-08-25T15:31:34.516Z,101171.00
2022-08-25T15:34:42.262Z,101173.38
2022-08-25T15:37:49.202Z,101184.47
2022-08-25T15:40:55.963Z,101186.41
2022-08-25T15:44:05.413Z,101176.78
2022-08-25T15:47:13.179Z,101178.72
2022-08-25T15:50:26.781Z,101174.81
2022-08-25T15:53:33.509Z,101185.78
2022-08-25T15:56:43.115Z,101180.81
2022-08-25T15:59:49.566Z,101170.34
2022-08-25T16:02:57.560Z,101171.50
2022-08-25T16:06:05.806Z,101173.53
2022-08-25T16:09:12.306Z,101189.31
2022-08-25T16:12:18.970Z,101178.34
2022-08-25T16:15:28.823Z,101182.22
2022-08-25T16:18:36.646Z,101190.66
2022-08-25T16:21:47.502Z,101193.47
2022-08-25T16:24:54.576Z,101192.94
2022-08-25T16:28:01.888Z,101189.63
2022-08-25T16:31:12.180Z,101197.78
2022-08-25T16:34:20.013Z,101193.81
2022-08-25T16:37:26.561Z,101200.41
2022-08-25T16:40:33.173Z,101207.56
2022-08-25T16:43:40.374Z,101205.03
2022-08-25T16:46:48.231Z,101211.09
2022-08-25T16:49:56.544Z,101219.84
2022-08-25T16:53:23.902Z,101221.53
2022-08-25T16:56:31.457Z,101233.03
2022-08-25T16:59:38.187Z,101233.00
2022-08-25T17:02:45.249Z,101248.00
2022-08-25T17:05:53.013Z,101260.31
2022-08-25T17:08:59.416Z,101253.38
2022-08-25T17:12:06.221Z,101265.97
2022-08-25T17:15:12.594Z,101263.69
2022-08-25T17:18:19.634Z,101268.31
2022-08-25T17:21:31.561Z,101272.91
2022-08-25T17:24:40.519Z,101266.19
2022-08-25T17:27:47.458Z,101263.69
2022-08-25T17:30:54.326Z,101267.38
2022-08-25T17:34:01.076Z,101271.13
2022-08-25T17:37:08.588Z,101267.00
2022-08-25T17:40:16.358Z,101269.69
2022-08-25T17:43:24.002Z,101275.91
2022-08-25T17:46:30.382Z,101283.03
2022-08-25T17:49:37.255Z,101292.66
2022-08-25T17:52:44.866Z,101287.63
2022-08-25T17:56:00.346Z,101284.28
2022-08-25T17:59:06.809Z,101281.75
2022-08-25T18:02:13.814Z,101295.75
2022-08-25T18:05:20.264Z,101300.16
2022-08-25T18:08:35.182Z,101311.53
2022-08-25T18:11:42.360Z,101319.41
2022-08-25T18:14:49.227Z,101320.34
2022-08-25T18:17:56.923Z,101321.28
2022-08-25T18:21:04.041Z,101337.88
2022-08-25T18:24:14.719Z,101337.06
2022-08-25T18:27:21.697Z,101337.13
2022-08-25T18:30:28.721Z,101342.41
2022-08-25T18:33:35.615Z,101345.03
2022-08-25T18:36:42.009Z,101353.81
2022-08-25T18:40:09.339Z,101351.25
2022-08-25T18:43:16.220Z,101354.75
2022-08-25T18:46:23.259Z,57006.34
2022-08-25T18:49:29.706Z,57006.34
2022-08-25T18:52:35.976Z,57006.34
2022-08-25T18:55:45.486Z,57006.34
2022-08-25T18:58:52.011Z,57006.34
2022-08-25T19:01:58.424Z,57006.34
2022-08-25T19:05:10.756Z,57006.34
2022-08-25T19:08:19.938Z,57006.34
2022-08-25T19:11:29.569Z,57006.34
2022-08-25T19:14:36.073Z,57006.34
2022-08-25T19:17:42.529Z,57006.34
2022-08-25T19:20:48.964Z,57006.34
2022-08-25T19:23:59.261Z,57006.34
2022-08-25T19:27:07.341Z,57006.34
2022-08-25T19:30:23.111Z,57006.34
2022-08-25T19:33:31.343Z,57006.34
2022-08-25T19:36:51.342Z,57006.34
2022-08-25T19:39:58.739Z,57006.34
2022-08-25T19:43:08.616Z,57006.34
2022-08-25T19:46:15.588Z,57006.34
2022-08-25T19:49:31.496Z,57006.34
2022-08-25T19:52:39.874Z,57006.34
2022-08-25T19:55:49.378Z,57006.34
2022-08-25T19:58:57.565Z,57006.34
2022-08-25T20:02:05.873Z,57006.34
2022-08-25T20:05:14.657Z,57006.34
2022-08-25T20:08:29.584Z,57006.34
2022-08-25T20:11:37.866Z,57006.34
2022-08-25T20:14:47.047Z,57006.34
2022-08-25T20:17:56.457Z,57006.34
2022-08-25T20:21:03.710Z,57006.34
2022-08-25T20:24:28.156Z,57006.34
2022-08-25T20:27:39.678Z,57006.34
2022-08-25T20:30:47.845Z,57006.34
2022-08-25T20:33:58.513Z,57006.34
2022-08-25T20:37:06.924Z,57006.34
2022-08-25T20:40:17.216Z,57006.34
2022-08-25T20:43:27.916Z,57006.34
2022-08-25T20:46:36.617Z,57006.34
2022-08-25T20:49:44.898Z,57006.34
2022-08-25T20:52:52.285Z,57006.34
2022-08-25T20:55:58.699Z,57006.34
2022-08-25T20:59:05.661Z,57006.34
2022-08-25T21:02:18.812Z,57006.34
2022-08-25T21:05:25.189Z,57006.34
2022-08-25T21:08:31.603Z,57006.34
2022-08-25T21:11:39.518Z,57006.34
2022-08-25T21:14:46.298Z,57006.34
2022-08-25T21:17:55.584Z,57006.34
2022-08-25T21:21:11.051Z,57006.34
2022-08-25T21:24:18.002Z,57006.34
2022-08-25T21:27:24.503Z,57006.34
2022-08-25T21:30:31.978Z,57006.34
2022-08-25T21:33:40.930Z,57006.34
2022-08-25T21:36:48.689Z,57006.34
2022-08-25T21:39:55.279Z,57006.34
2022-08-25T21:43:01.944Z,57006.34
2022-08-25T21:46:13.307Z,57006.34
2022-08-25T21:49:21.250Z,57006.34
2022-08-25T21:52:27.569Z,57006.34
2022-08-25T21:55:38.714Z,57006.34
2022-08-25T21:58:49.426Z,57006.34
2022-08-25T22:01:57.984Z,57006.34
2022-08-25T22:05:09.439Z,57006.34
2022-08-25T22:08:17.449Z,57006.34
2022-08-25T22:11:26.626Z,57006.34
2022-08-25T22:14:33.477Z,57006.34
2022-08-25T22:17:41.271Z,57006.34
2022-08-25T22:20:49.575Z,57006.34
2022-08-25T22:23:57.115Z,57006.34
2022-08-25T22:27:03.722Z,57006.34
2022-08-25T22:30:21.997Z,57006.34
2022-08-25T22:33:28.586Z,57006.34
2022-08-25T22:36:40.096Z,57006.34
2022-08-25T22:39:47.780Z,57006.34
2022-08-25T22:42:54.714Z,57006.34
2022-08-25T22:46:02.779Z,57006.34
2022-08-25T22:49:09.250Z,57006.34
2022-08-25T22:52:17.071Z,57006.34
2022-08-25T22:55:23.630Z,57006.34
2022-08-25T22:58:30.546Z,57006.34
2022-08-25T23:01:37.978Z,57006.34
2022-08-25T23:04:45.909Z,57006.34
2022-08-25T23:07:53.411Z,57006.34
2022-08-25T23:10:59.910Z,57006.34
2022-08-25T23:14:09.458Z,57006.34
2022-08-25T23:17:15.679Z,57006.34
2022-08-25T23:20:45.234Z,57006.34
2022-08-25T23:23:54.892Z,57006.34
2022-08-25T23:27:05.113Z,57006.34
2022-08-25T23:30:13.794Z,57006.34
2022-08-25T23:33:21.500Z,57006.34
2022-08-25T23:36:28.361Z,57006.34
2022-08-25T23:39:39.278Z,57006.34
2022-08-25T23:42:45.454Z,57006.34
2022-08-25T23:45:53.747Z,57006.34
2022-08-25T23:49:00.185Z,57006.34
2022-08-25T23:52:07.045Z,57006.34
2022-08-25T23:55:14.786Z,57006.34
2022-08-25T23:58:22.449Z,57006.34
